DAL307 KLAX-PHNL
Flight info
| Callsign | DAL307 |
|---|---|
| Flight time | N/A |
| Altitude | 36000 |
| Route | SUMMR2 DINTY DUETS/N0468F380 R576 DENNS MAGGI3 |
| Aircraft | A339/H-SADE1E2E3GHIJ3J5M1P2RWXY/LB2D1 |
Departure
| Time | 2026-04-23 12:17 |
|---|---|
| Airport | Los Angeles International Airport (KLAX) |
Arrival
| Time | N/A |
|---|---|
| Airport | Daniel K. Inouye International Airport (PHNL) |
| Time | Latitude | Longitude | Altitude | Speed | Heading |
|---|---|---|---|---|---|
| 2026-04-23 11:43 | 33.94438 | -118.41456 | 129 ft | 0 kts | 263° |
| 2026-04-23 12:07 | 33.94439 | -118.41445 | 129 ft | 2 kts | 264° |
| 2026-04-23 12:07 | 33.94441 | -118.41427 | 129 ft | 2 kts | 263° |
| 2026-04-23 12:08 | 33.94442 | -118.41409 | 129 ft | 2 kts | 263° |
| 2026-04-23 12:08 | 33.94443 | -118.41391 | 129 ft | 2 kts | 278° |
| 2026-04-23 12:08 | 33.94439 | -118.41373 | 129 ft | 2 kts | 299° |
| 2026-04-23 12:08 | 33.94430 | -118.41359 | 129 ft | 2 kts | 317° |
| 2026-04-23 12:09 | 33.94418 | -118.41348 | 129 ft | 2 kts | 335° |
| 2026-04-23 12:09 | 33.94405 | -118.41343 | 129 ft | 0 kts | 352° |
| 2026-04-23 12:09 | 33.94401 | -118.41342 | 129 ft | 0 kts | 354° |
| 2026-04-23 12:11 | 33.94402 | -118.41342 | 129 ft | 0 kts | 354° |
| 2026-04-23 12:11 | 33.94414 | -118.41344 | 129 ft | 3 kts | 354° |
| 2026-04-23 12:12 | 33.94455 | -118.41349 | 129 ft | 8 kts | 353° |
| 2026-04-23 12:12 | 33.94532 | -118.41360 | 129 ft | 13 kts | 354° |
| 2026-04-23 12:12 | 33.94645 | -118.41374 | 129 ft | 18 kts | 354° |
| 2026-04-23 12:12 | 33.94760 | -118.41381 | 131 ft | 9 kts | 27° |
| 2026-04-23 12:13 | 33.94788 | -118.41318 | 132 ft | 3 kts | 82° |
| 2026-04-23 12:13 | 33.94789 | -118.41318 | 132 ft | 0 kts | 82° |
| 2026-04-23 12:13 | 33.94794 | -118.41267 | 132 ft | 13 kts | 83° |
| 2026-04-23 12:13 | 33.94811 | -118.41097 | 132 ft | 27 kts | 86° |
| 2026-04-23 12:14 | 33.94839 | -118.40846 | 132 ft | 29 kts | 81° |
| 2026-04-23 12:14 | 33.94860 | -118.40653 | 129 ft | 20 kts | 82° |
| 2026-04-23 12:14 | 33.94878 | -118.40487 | 129 ft | 19 kts | 83° |
| 2026-04-23 12:14 | 33.94896 | -118.40317 | 126 ft | 20 kts | 83° |
| 2026-04-23 12:15 | 33.94913 | -118.40149 | 125 ft | 19 kts | 81° |
| 2026-04-23 12:15 | 33.94995 | -118.40060 | 123 ft | 14 kts | 6° |
| 2026-04-23 12:15 | 33.95025 | -118.40102 | 124 ft | 6 kts | 268° |
| 2026-04-23 12:15 | 33.95023 | -118.40129 | 124 ft | 0 kts | 264° |
| 2026-04-23 12:16 | 33.95017 | -118.40192 | 126 ft | 30 kts | 264° |
| 2026-04-23 12:16 | 33.94967 | -118.40708 | 130 ft | 92 kts | 263° |
| 2026-04-23 12:16 | 33.94870 | -118.41695 | 130 ft | 144 kts | 263° |
| 2026-04-23 12:16 | 33.94723 | -118.43058 | 284 ft | 173 kts | 261° |
| 2026-04-23 12:17 | 33.94540 | -118.44488 | 772 ft | 177 kts | 261° |
| 2026-04-23 12:17 | 33.94334 | -118.45958 | 1305 ft | 182 kts | 262° |
| 2026-04-23 12:17 | 33.94238 | -118.47469 | 1910 ft | 182 kts | 270° |
| 2026-04-23 12:17 | 33.94216 | -118.49052 | 2295 ft | 196 kts | 271° |
| 2026-04-23 12:18 | 33.94188 | -118.50721 | 2743 ft | 206 kts | 268° |
| 2026-04-23 12:18 | 33.94078 | -118.52465 | 3268 ft | 213 kts | 268° |
| 2026-04-23 12:18 | 33.93946 | -118.54308 | 3602 ft | 230 kts | 267° |
| 2026-04-23 12:18 | 33.93794 | -118.56297 | 3959 ft | 248 kts | 267° |
| 2026-04-23 12:19 | 33.93628 | -118.58421 | 4368 ft | 264 kts | 267° |
| 2026-04-23 12:19 | 33.93453 | -118.60641 | 5044 ft | 268 kts | 268° |
| 2026-04-23 12:19 | 33.93276 | -118.62864 | 5784 ft | 269 kts | 267° |
| 2026-04-23 12:19 | 33.93098 | -118.65109 | 6480 ft | 271 kts | 267° |
| 2026-04-23 12:20 | 33.92924 | -118.67355 | 7165 ft | 273 kts | 268° |
| 2026-04-23 12:20 | 33.92750 | -118.69610 | 7863 ft | 274 kts | 268° |
| 2026-04-23 12:20 | 33.92573 | -118.71898 | 8564 ft | 274 kts | 268° |
| 2026-04-23 12:20 | 33.92395 | -118.74166 | 9279 ft | 274 kts | 268° |
| 2026-04-23 12:21 | 33.92219 | -118.76434 | 9984 ft | 274 kts | 268° |
| 2026-04-23 12:21 | 33.92040 | -118.78740 | 10521 ft | 281 kts | 268° |
| 2026-04-23 12:21 | 33.91856 | -118.81142 | 10806 ft | 297 kts | 268° |
| 2026-04-23 12:21 | 33.91752 | -118.83693 | 11111 ft | 311 kts | 272° |
| 2026-04-23 12:22 | 33.91792 | -118.86324 | 11676 ft | 317 kts | 274° |
| 2026-04-23 12:22 | 33.91864 | -118.88931 | 12380 ft | 317 kts | 274° |
| 2026-04-23 12:22 | 33.91941 | -118.91581 | 13104 ft | 318 kts | 273° |
| 2026-04-23 12:22 | 33.92018 | -118.94242 | 13859 ft | 317 kts | 274° |
| 2026-04-23 12:23 | 33.92093 | -118.96867 | 14517 ft | 319 kts | 273° |
| 2026-04-23 12:23 | 33.92237 | -118.99538 | 15111 ft | 322 kts | 279° |
| 2026-04-23 12:23 | 33.92794 | -119.02131 | 15660 ft | 327 kts | 289° |
| 2026-04-23 12:23 | 33.93785 | -119.04617 | 16147 ft | 335 kts | 298° |
| 2026-04-23 12:24 | 33.94977 | -119.06956 | 16720 ft | 338 kts | 299° |
| 2026-04-23 12:24 | 33.95103 | -119.07201 | 16782 ft | 338 kts | 299° |
| 2026-04-23 12:24 | 33.95939 | -119.08823 | 17244 ft | 340 kts | 299° |
| 2026-04-23 12:24 | 33.97186 | -119.11252 | 17937 ft | 340 kts | 298° |
| 2026-04-23 12:25 | 33.98404 | -119.13635 | 18686 ft | 337 kts | 299° |
| 2026-04-23 12:25 | 33.99686 | -119.16042 | 19160 ft | 344 kts | 302° |
| 2026-04-23 12:25 | 34.01106 | -119.18305 | 19987 ft | 337 kts | 302° |
| 2026-04-23 12:25 | 34.02603 | -119.20465 | 20722 ft | 340 kts | 314° |
| 2026-04-23 12:26 | 34.04554 | -119.22192 | 20976 ft | 356 kts | 322° |
| 2026-04-23 12:26 | 34.06663 | -119.23847 | 21227 ft | 368 kts | 323° |
| 2026-04-23 12:26 | 34.08854 | -119.25587 | 21409 ft | 379 kts | 322° |
| 2026-04-23 12:26 | 34.11066 | -119.27388 | 21716 ft | 386 kts | 321° |
| 2026-04-23 12:27 | 34.13270 | -119.29221 | 22240 ft | 385 kts | 319° |
| 2026-04-23 12:27 | 34.15308 | -119.30939 | 22760 ft | 383 kts | 318° |
| 2026-04-23 12:27 | 34.17497 | -119.32784 | 23270 ft | 382 kts | 317° |